Time;durP1;ratioP1;P1;durP2;ratioP2;P2;SDS_P1;SDS_P2;PMS_P1;PMS_P2;Temp;Humidity;BMP_temperature;BMP_pressure;BME280_temperature;BME280_humidity;BME280_pressure;Samples;Min_cycle;Max_cycle;Signal;HPM_P1;HPM_P2
2022/07/27 00:00:19;;;;;;;5.65;1.30;;;;;;;12.33;84.36;101902.94;4993883;28;20514;-86
2022/07/27 00:02:44;;;;;;;2.90;1.10;;;;;;;12.31;83.98;101904.25;4994639;28;20034;-87
2022/07/27 00:05:10;;;;;;;5.80;1.30;;;;;;;12.26;84.14;101900.41;4994043;28;20050;-86
2022/07/27 00:07:35;;;;;;;5.33;1.40;;;;;;;12.24;84.62;101904.41;4993589;28;20116;-86
2022/07/27 00:10:01;;;;;;;10.63;1.58;;;;;;;12.24;84.70;101896.38;4993429;28;20026;-86
2022/07/27 00:12:27;;;;;;;4.67;1.53;;;;;;;12.22;84.76;101890.41;4993658;28;20077;-87
2022/07/27 00:14:52;;;;;;;5.50;1.70;;;;;;;12.21;85.16;101894.16;4992870;28;20030;-86
2022/07/27 00:17:22;;;;;;;6.07;1.50;;;;;;;12.22;85.02;101890.41;4994291;28;20406;-87
2022/07/27 00:19:48;;;;;;;4.80;1.40;;;;;;;12.16;84.56;101892.19;4994699;28;20367;-86
2022/07/27 00:22:13;;;;;;;5.55;1.30;;;;;;;12.05;85.09;101895.78;4993111;28;20026;-87
2022/07/27 00:24:39;;;;;;;6.77;1.50;;;;;;;11.98;85.43;101898.56;4992953;28;20113;-87
2022/07/27 00:27:04;;;;;;;3.40;1.30;;;;;;;11.93;85.83;101885.06;4993045;28;20437;-87
2022/07/27 00:29:29;;;;;;;4.78;1.27;;;;;;;11.89;86.25;101890.06;4993508;28;20026;-86
2022/07/27 00:31:54;;;;;;;3.67;1.30;;;;;;;11.88;86.52;101898.38;4993528;28;20088;-87
2022/07/27 00:34:20;;;;;;;3.40;1.40;;;;;;;11.82;86.69;101894.78;4993994;28;20022;-86
2022/07/27 00:36:45;;;;;;;3.13;1.20;;;;;;;11.78;86.70;101883.69;4993721;28;20529;-87
2022/07/27 00:39:10;;;;;;;2.13;1.40;;;;;;;11.73;86.76;101899.72;4992845;28;20145;-87
2022/07/27 00:41:35;;;;;;;4.40;1.30;;;;;;;11.65;86.54;101890.19;4992639;28;20402;-86
2022/07/27 00:44:04;;;;;;;4.27;1.40;;;;;;;11.60;86.69;101892.75;4991976;28;20106;-87
2022/07/27 00:46:29;;;;;;;5.50;1.60;;;;;;;11.55;87.36;101889.16;4994015;28;20414;-86
2022/07/27 00:48:54;;;;;;;3.50;1.43;;;;;;;11.54;87.38;101892.91;4992467;28;20102;-86
2022/07/27 00:51:21;;;;;;;5.93;1.37;;;;;;;11.47;87.06;101893.03;4992070;28;20331;-86
2022/07/27 00:53:48;;;;;;;3.45;1.33;;;;;;;11.43;87.84;101894.56;4992972;28;20073;-86
2022/07/27 00:56:13;;;;;;;4.33;1.27;;;;;;;11.39;87.99;101899.59;4992781;28;20052;-86
2022/07/27 00:58:39;;;;;;;5.20;1.60;;;;;;;11.34;88.11;101894.13;4975825;28;20328;-86
2022/07/27 01:01:06;;;;;;;8.00;1.43;;;;;;;11.30;88.35;101903.69;4992903;28;20084;-86
2022/07/27 01:03:31;;;;;;;5.28;1.30;;;;;;;11.26;88.65;101889.94;4975528;28;20065;-86
2022/07/27 01:05:57;;;;;;;5.80;1.35;;;;;;;11.19;88.94;101891.91;4992687;28;20077;-87
2022/07/27 01:08:23;;;;;;;3.65;1.25;;;;;;;11.17;88.64;101891.34;4991562;28;20074;-87
2022/07/27 01:10:51;;;;;;;4.50;1.40;;;;;;;11.09;88.80;101892.50;4990143;28;20046;-87
2022/07/27 01:13:16;;;;;;;8.40;1.67;;;;;;;11.05;88.88;101894.03;4993658;28;20018;-87
2022/07/27 01:15:42;;;;;;;5.60;1.50;;;;;;;10.98;89.87;101886.09;4992826;28;20037;-87
2022/07/27 01:18:34;;;;;;;3.77;1.50;;;;;;;10.96;89.19;101888.19;4992519;28;20037;-87
2022/07/27 01:21:01;;;;;;;5.05;1.40;;;;;;;10.94;89.34;101887.66;4991423;28;20097;-86
2022/07/27 01:23:27;;;;;;;5.20;1.40;;;;;;;10.87;89.76;101879.69;4993297;28;20030;-87
2022/07/27 01:25:54;;;;;;;7.40;1.42;;;;;;;10.86;90.80;101879.94;4979325;28;20085;-87
2022/07/27 01:28:19;;;;;;;3.20;1.60;;;;;;;10.84;90.65;101884.72;4983718;28;20033;-86
2022/07/27 01:30:45;;;;;;;4.23;1.77;;;;;;;10.82;91.09;101881.44;4992530;28;20027;-87
2022/07/27 01:33:10;;;;;;;6.80;1.95;;;;;;;10.79;90.85;101885.44;4993278;28;20026;-91
2022/07/27 01:35:38;;;;;;;3.47;1.47;;;;;;;10.80;90.89;101886.22;4992715;28;20524;-87
2022/07/27 01:38:04;;;;;;;4.57;1.60;;;;;;;10.73;90.78;101886.34;4990691;28;20031;-86
2022/07/27 01:40:29;;;;;;;7.63;2.00;;;;;;;10.68;91.44;101887.06;4991364;28;20078;-87
2022/07/27 01:42:55;;;;;;;4.87;1.90;;;;;;;10.60;91.77;101885.53;4992488;28;20050;-86
2022/07/27 01:45:20;;;;;;;5.73;1.70;;;;;;;10.53;92.11;101884.81;4992536;28;20030;-86
2022/07/27 01:47:46;;;;;;;3.67;1.70;;;;;;;10.51;92.09;101878.06;4990333;28;20290;-86
2022/07/27 01:50:11;;;;;;;8.60;2.30;;;;;;;10.52;92.29;101883.19;4992271;28;20091;-85
2022/07/27 01:52:38;;;;;;;6.27;1.93;;;;;;;10.45;91.77;101877.13;4991693;28;20289;-86
2022/07/27 01:55:05;;;;;;;5.47;2.00;;;;;;;10.44;92.88;101876.28;4974369;28;20031;-85
2022/07/27 01:57:31;;;;;;;5.68;1.77;;;;;;;10.36;92.50;101876.63;4990053;28;20109;-86
2022/07/27 01:59:56;;;;;;;3.70;1.80;;;;;;;10.38;93.00;101881.75;4992631;28;20116;-86
2022/07/27 02:02:24;;;;;;;6.30;1.98;;;;;;;10.37;93.01;101880.09;4991179;28;20035;-85
2022/07/27 02:04:49;;;;;;;5.77;1.93;;;;;;;10.34;93.50;101876.03;4974103;28;20061;-86
2022/07/27 02:07:14;;;;;;;8.07;2.30;;;;;;;10.24;93.09;101860.53;4972278;28;20122;-86
2022/07/27 02:09:40;;;;;;;3.20;1.93;;;;;;;10.32;93.45;101877.31;4992289;28;20044;-86
2022/07/27 02:14:49;;;;;;;6.03;2.15;;;;;;;10.21;93.01;101870.88;4992446;28;20029;-85
2022/07/27 02:17:14;;;;;;;4.60;2.00;;;;;;;10.17;93.51;101870.50;4990130;28;20295;-85
2022/07/27 02:19:39;;;;;;;5.97;2.20;;;;;;;10.18;94.15;101871.34;4971976;28;20050;-85
2022/07/27 02:22:05;;;;;;;4.77;2.20;;;;;;;10.16;94.17;101874.22;4991517;28;20029;-85
2022/07/27 02:24:30;;;;;;;9.40;2.23;;;;;;;10.09;94.07;101862.81;4990993;28;20077;-85
2022/07/27 02:26:55;;;;;;;3.97;1.97;;;;;;;10.10;94.35;101865.25;4990233;28;20109;-85
2022/07/27 02:29:21;;;;;;;4.32;2.00;;;;;;;10.09;94.50;101868.97;4992176;28;20088;-85
2022/07/27 02:31:46;;;;;;;6.20;2.23;;;;;;;10.05;94.19;101865.13;4992167;28;20034;-85
2022/07/27 02:34:11;;;;;;;4.10;2.10;;;;;;;10.00;93.97;101870.38;4972843;28;20430;-85
2022/07/27 02:36:37;;;;;;;5.00;1.80;;;;;;;9.94;94.24;101861.38;4991720;28;20038;-86
2022/07/27 02:39:03;;;;;;;4.47;2.05;;;;;;;9.90;93.88;101859.38;4992989;28;20034;-86
2022/07/27 02:41:28;;;;;;;6.93;2.43;;;;;;;9.93;94.61;101872.31;4994137;28;20032;-85
2022/07/27 02:43:53;;;;;;;4.88;1.95;;;;;;;9.91;94.81;101861.84;4996751;28;20037;-85
2022/07/27 02:46:19;;;;;;;6.03;2.20;;;;;;;9.87;94.67;101862.50;4992386;28;20035;-84
2022/07/27 02:48:44;;;;;;;5.23;1.90;;;;;;;9.80;94.15;101863.44;4981684;28;20057;-84
2022/07/27 02:51:09;;;;;;;6.33;2.03;;;;;;;9.75;94.59;101859.81;4992283;28;20041;-84
2022/07/27 02:53:35;;;;;;;3.97;2.20;;;;;;;9.73;94.95;101856.53;5001382;28;20509;-85
2022/07/27 02:56:00;;;;;;;3.73;1.93;;;;;;;9.70;95.69;101860.47;4993158;28;20390;-84
2022/07/27 02:58:25;;;;;;;4.85;2.25;;;;;;;9.66;95.55;101861.97;4992361;28;20033;-85
2022/07/27 03:00:51;;;;;;;5.20;2.37;;;;;;;9.64;95.09;101862.19;4991955;28;20022;-84
2022/07/27 03:03:16;;;;;;;3.80;2.50;;;;;;;9.61;95.95;101861.84;4990999;28;20022;-84
2022/07/27 03:05:42;;;;;;;4.55;2.22;;;;;;;9.58;95.85;101857.75;4989228;28;20482;-85
2022/07/27 03:08:07;;;;;;;5.73;2.43;;;;;;;9.59;96.54;101858.56;4974418;28;20029;-85
2022/07/27 03:10:33;;;;;;;5.53;2.10;;;;;;;9.60;96.46;101870.91;4973866;28;20034;-85
2022/07/27 03:12:59;;;;;;;3.22;2.13;;;;;;;9.55;96.43;101861.69;4992277;28;20061;-85
2022/07/27 03:15:24;;;;;;;3.47;2.47;;;;;;;9.56;96.93;101865.19;4994363;28;20034;-85
2022/07/27 03:17:51;;;;;;;7.33;2.50;;;;;;;9.58;97.05;101870.31;5002996;28;20033;-85
2022/07/27 03:20:17;;;;;;;3.97;2.10;;;;;;;9.55;97.01;101864.34;5001200;28;20014;-85
2022/07/27 03:22:43;;;;;;;5.23;2.63;;;;;;;9.53;96.81;101871.78;4985169;28;20034;-85
2022/07/27 03:25:09;;;;;;;5.25;2.28;;;;;;;9.48;96.76;101865.47;5003671;28;20461;-85
2022/07/27 03:27:35;;;;;;;10.00;2.80;;;;;;;9.50;97.37;101872.22;4992184;28;20026;-85
2022/07/27 03:30:00;;;;;;;3.83;2.40;;;;;;;9.48;97.26;101877.03;4991367;28;20046;-85
2022/07/27 03:32:25;;;;;;;4.97;2.40;;;;;;;9.48;97.52;101870.84;4971862;28;20049;-85
2022/07/27 03:34:51;;;;;;;5.23;2.60;;;;;;;9.47;97.37;101866.53;4989992;28;20406;-84
2022/07/27 03:37:17;;;;;;;7.28;2.45;;;;;;;9.43;97.22;101874.19;4990096;28;20031;-85
2022/07/27 03:39:43;;;;;;;5.03;2.80;;;;;;;9.43;97.12;101868.00;4990316;28;20117;-84
2022/07/27 03:42:08;;;;;;;5.13;2.47;;;;;;;9.37;96.89;101867.06;4990906;28;20062;-84
2022/07/27 03:44:33;;;;;;;4.53;2.43;;;;;;;9.38;97.44;101871.38;4988509;28;20019;-84
2022/07/27 03:46:58;;;;;;;3.50;2.20;;;;;;;9.37;97.24;101872.41;4990248;28;20446;-84
2022/07/27 03:49:24;;;;;;;4.23;2.23;;;;;;;9.35;97.52;101874.47;4972698;28;20089;-84
2022/07/27 03:51:49;;;;;;;5.93;2.47;;;;;;;9.35;97.51;101878.00;4989530;28;20037;-85
2022/07/27 03:54:16;;;;;;;5.97;2.73;;;;;;;9.28;97.60;101871.09;4989066;28;20031;-84
2022/07/27 03:56:42;;;;;;;8.03;2.53;;;;;;;9.28;97.63;101879.09;4988894;28;20305;-84
2022/07/27 03:59:07;;;;;;;6.00;2.45;;;;;;;9.27;97.95;101877.47;4990601;28;20125;-84
2022/07/27 04:01:32;;;;;;;5.17;2.67;;;;;;;9.26;97.66;101873.16;4990933;28;20062;-85
2022/07/27 04:03:58;;;;;;;5.03;2.70;;;;;;;9.30;98.27;101877.03;4988836;28;20061;-85
2022/07/27 04:06:24;;;;;;;4.03;2.60;;;;;;;9.33;98.14;101874.72;4989756;28;20084;-86
2022/07/27 04:08:49;;;;;;;8.50;2.83;;;;;;;9.40;97.96;101879.97;4988620;28;20031;-87
2022/07/27 04:11:15;;;;;;;7.37;2.60;;;;;;;9.49;98.55;101885.84;4988845;28;20037;-87
2022/07/27 04:13:42;;;;;;;8.67;3.10;;;;;;;9.58;98.70;101884.53;4973974;28;20065;-88
2022/07/27 04:16:07;;;;;;;7.55;3.10;;;;;;;9.64;98.00;101880.13;4989794;28;20138;-87
2022/07/27 04:18:33;;;;;;;5.68;2.85;;;;;;;9.71;97.59;101880.81;4991645;28;20058;-88
2022/07/27 04:21:00;;;;;;;6.30;2.63;;;;;;;9.75;97.46;101874.00;4990682;28;20050;-87
2022/07/27 04:23:26;;;;;;;7.70;3.20;;;;;;;9.85;98.27;101874.28;4991163;28;20029;-87
2022/07/27 04:25:51;;;;;;;6.20;2.57;;;;;;;10.03;97.84;101885.16;4988277;28;20034;-87
2022/07/27 04:28:16;;;;;;;5.37;3.00;;;;;;;10.18;97.65;101880.19;4991318;28;20041;-90
2022/07/27 04:30:42;;;;;;;5.90;3.10;;;;;;;10.36;97.46;101879.31;4992643;28;20046;-89
2022/07/27 04:33:07;;;;;;;6.00;3.50;;;;;;;10.58;96.12;101884.16;4995073;28;20109;-88
2022/07/27 04:39:16;;;;;;;7.68;3.33;;;;;;;10.96;94.32;101887.41;4995184;28;20049;-89
2022/07/27 05:20:15;;;;;;;9.68;2.50;;;;;;;17.48;71.46;101921.84;5014634;28;20061;-89
2022/07/27 05:23:19;;;;;;;3.70;2.47;;;;;;;18.05;69.73;101926.19;5001790;28;20088;-90
2022/07/27 05:45:53;;;;;;;5.40;2.00;;;;;;;20.25;59.12;101944.97;5033373;23;20057;-94
2022/07/27 05:48:38;;;;;;;6.75;2.33;;;;;;;19.82;59.04;101932.22;5012192;28;20069;-95
2022/07/27 05:51:18;;;;;;;3.33;2.30;;;;;;;19.16;59.68;101927.38;5012398;28;20034;-92
2022/07/27 05:53:46;;;;;;;3.13;2.17;;;;;;;18.61;61.07;101931.16;5003335;28;20037;-91
2022/07/27 06:13:01;;;;;;;5.53;2.07;;;;;;;16.27;71.81;101955.88;4971218;28;20297;-89
2022/07/27 06:15:51;;;;;;;3.72;1.90;;;;;;;15.88;72.75;101944.47;5020534;28;20044;-89
2022/07/27 06:24:44;;;;;;;2.65;1.55;;;;;;;15.36;73.76;101937.19;5033159;28;20476;-90
2022/07/27 06:27:41;;;;;;;9.47;1.77;;;;;;;15.34;73.60;101952.88;5014617;28;20045;-90
2022/07/27 06:30:07;;;;;;;8.27;1.90;;;;;;;15.14;75.01;101933.59;5012837;28;20030;-90
2022/07/27 06:32:36;;;;;;;4.28;1.90;;;;;;;15.22;75.34;101951.19;5011729;28;20029;-89
2022/07/27 06:35:02;;;;;;;5.00;1.65;;;;;;;15.36;75.05;101950.69;5011115;28;20413;-90
2022/07/27 06:37:29;;;;;;;6.40;2.13;;;;;;;15.39;74.04;101947.47;5012340;28;20038;-89
2022/07/27 06:39:56;;;;;;;3.57;1.33;;;;;;;15.43;72.45;101952.09;5008510;28;20037;-90
2022/07/27 06:42:21;;;;;;;3.30;1.30;;;;;;;15.51;72.11;101949.97;5021728;22;20384;-89
2022/07/27 06:44:48;;;;;;;6.95;1.23;;;;;;;15.53;71.02;101950.53;5012201;28;20096;-89
2022/07/27 06:47:14;;;;;;;1.93;0.93;;;;;;;15.52;71.26;101948.91;5016084;28;20056;-90
2022/07/27 06:49:41;;;;;;;4.30;1.00;;;;;;;15.52;71.18;101955.09;5012308;28;20133;-90
2022/07/27 06:52:06;;;;;;;10.47;1.37;;;;;;;15.56;71.53;101956.19;5010437;28;20448;-90
2022/07/27 06:54:32;;;;;;;6.72;1.20;;;;;;;15.66;71.89;101955.44;5006196;28;20030;-93
2022/07/27 07:00:05;;;;;;;4.15;1.20;;;;;;;15.81;70.84;101957.38;5927327;23;20057;-92
2022/07/27 07:03:40;;;;;;;5.10;0.95;;;;;;;15.93;71.08;101948.25;5007521;28;20050;-92
2022/07/27 07:07:14;;;;;;;4.97;0.93;;;;;;;16.10;68.67;101965.03;4907435;29;20161;-90
2022/07/27 07:09:40;;;;;;;4.00;0.93;;;;;;;16.11;69.03;101961.25;4883271;28;20043;-92
2022/07/27 07:12:38;;;;;;;4.27;1.00;;;;;;;16.41;69.33;101975.09;5000097;28;20022;-92
2022/07/27 07:15:36;;;;;;;7.50;1.10;;;;;;;16.49;68.33;101978.06;4994348;28;20060;-93
2022/07/27 07:34:07;;;;;;;2.25;1.00;;;;;;;17.41;65.42;101959.28;5010996;28;20480;-93
2022/07/27 07:36:38;;;;;;;9.40;1.33;;;;;;;17.45;62.23;101968.47;5013757;28;20037;-94
2022/07/27 07:39:20;;;;;;;6.57;1.20;;;;;;;17.41;63.12;101968.22;4978094;28;20461;-94
2022/07/27 07:52:52;;;;;;;5.45;1.25;;;;;;;17.83;59.54;101982.41;4981059;28;20576;-94
2022/07/27 07:55:35;;;;;;;3.47;1.50;;;;;;;17.89;60.76;101972.34;4963033;28;20495;-95
2022/07/27 07:58:08;;;;;;;5.70;1.70;;;;;;;17.70;61.87;101975.69;4962879;28;20301;-93
2022/07/27 08:00:51;;;;;;;5.05;1.60;;;;;;;17.95;62.33;101973.13;4954841;28;20039;-91
2022/07/27 08:04:02;;;;;;;4.05;1.40;;;;;;;18.42;61.45;101993.47;4966103;28;20150;-90
2022/07/27 08:06:38;;;;;;;6.25;1.42;;;;;;;18.97;58.77;101991.69;4955895;28;20475;-91
2022/07/27 08:09:04;;;;;;;4.65;1.42;;;;;;;19.24;57.97;101993.84;4974294;28;20033;-90
2022/07/27 08:12:13;;;;;;;5.63;1.10;;;;;;;19.62;57.28;101991.25;5082972;23;20045;-91
2022/07/27 08:14:38;;;;;;;10.20;1.40;;;;;;;19.82;52.95;101986.59;5029019;28;20487;-91
2022/07/27 08:17:32;;;;;;;6.07;1.30;;;;;;;20.11;54.03;102011.00;5034204;28;20307;-91
2022/07/27 08:20:00;;;;;;;5.53;1.17;;;;;;;20.06;51.27;102000.19;5030188;28;20022;-90
2022/07/27 08:23:03;;;;;;;4.30;0.93;;;;;;;20.35;51.26;102004.66;5033425;28;20619;-91
2022/07/27 08:28:50;;;;;;;3.88;1.60;;;;;;;20.41;50.17;101984.44;5034374;28;20040;-92
2022/07/27 08:31:34;;;;;;;5.00;1.13;;;;;;;20.40;51.77;101988.25;5031774;28;20738;-92
2022/07/27 08:34:34;;;;;;;8.10;1.20;;;;;;;20.50;51.97;101992.72;5012931;28;20025;-91
2022/07/27 08:37:08;;;;;;;3.22;1.50;;;;;;;20.17;50.16;101968.22;5035783;28;20045;-91
2022/07/27 08:39:33;;;;;;;4.43;0.93;;;;;;;20.15;49.66;101969.59;5033943;28;20018;-90
2022/07/27 08:42:08;;;;;;;4.03;1.13;;;;;;;20.07;49.79;101969.19;5029429;28;20033;-91
2022/07/27 08:48:44;;;;;;;10.30;1.42;;;;;;;20.76;50.69;101967.81;5015717;28;20072;-91
2022/07/27 09:01:20;;;;;;;3.70;1.20;;;;;;;19.92;48.85;101974.81;5275157;22;20056;-90
2022/07/27 09:19:18;;;;;;;2.17;0.80;;;;;;;20.58;48.00;101980.34;5013919;28;20091;-90
2022/07/27 09:44:59;;;;;;;3.37;1.10;;;;;;;20.63;44.64;101999.34;5147291;23;20316;-89
2022/07/27 09:47:39;;;;;;;3.95;0.85;;;;;;;20.27;43.87;101991.72;5021974;28;20026;-89
2022/07/27 09:50:48;;;;;;;3.25;0.73;;;;;;;19.97;45.06;102001.94;5021268;28;20022;-89
2022/07/27 09:56:36;;;;;;;2.65;0.88;;;;;;;19.92;45.33;101977.53;4955700;23;20114;-90
2022/07/27 10:03:21;;;;;;;4.55;1.05;;;;;;;20.84;44.98;101985.38;4919858;29;20092;-89
2022/07/27 10:05:46;;;;;;;8.10;1.23;;;;;;;21.86;41.40;101980.94;4923183;28;20143;-89
2022/07/27 10:08:38;;;;;;;5.27;1.23;;;;;;;22.54;40.03;101978.28;4994389;28;20058;-88
2022/07/27 10:11:32;;;;;;;5.85;1.05;;;;;;;22.83;40.34;101980.50;5010903;22;20045;-88
2022/07/27 10:14:00;;;;;;;2.00;1.05;;;;;;;22.27;39.83;101980.00;5012245;28;20030;-87
2022/07/27 10:16:42;;;;;;;5.45;1.10;;;;;;;22.01;42.17;101988.75;5013668;28;20033;-88
2022/07/27 10:23:05;;;;;;;5.00;1.10;;;;;;;21.38;41.45;101990.34;4985800;28;20128;-87
2022/07/27 10:25:51;;;;;;;4.63;1.00;;;;;;;20.98;41.23;101983.50;4971575;28;20046;-86
2022/07/27 10:28:49;;;;;;;4.33;0.90;;;;;;;20.97;42.65;101984.59;4992476;28;20301;-89
2022/07/27 10:31:39;;;;;;;7.32;0.95;;;;;;;20.85;43.05;101987.00;4990815;28;20038;-88
2022/07/27 10:34:43;;;;;;;;;;;;;;;;;;;;;
2022/07/27 10:37:31;;;;;;;7.72;1.15;;;;;;;21.83;43.40;101978.81;4897060;29;20044;-87
2022/07/27 10:43:17;;;;;;;4.00;0.93;;;;;;;22.51;41.06;101968.78;4899485;29;20642;-87
2022/07/27 10:46:37;;;;;;;2.33;1.00;;;;;;;22.33;39.45;101961.56;4930424;28;20042;-88
2022/07/27 10:50:01;;;;;;;3.53;1.02;;;;;;;22.58;41.72;101964.81;4973654;28;20037;-87
2022/07/27 10:56:00;;;;;;;5.83;1.30;;;;;;;23.79;37.68;101968.28;4908061;28;20072;-87
2022/07/27 10:58:31;;;;;;;5.03;1.23;;;;;;;24.01;37.93;101969.31;4974336;28;20313;-88
2022/07/27 11:01:20;;;;;;;2.38;1.00;;;;;;;24.31;39.70;101966.69;4990040;28;20058;-88
2022/07/27 11:04:12;;;;;;;5.10;1.23;;;;;;;24.14;39.99;101951.91;4989992;28;20084;-85
2022/07/27 11:06:47;;;;;;;3.83;1.05;;;;;;;24.13;40.51;101936.59;4990912;28;20046;-87
2022/07/27 11:09:18;;;;;;;4.20;1.40;;;;;;;23.99;40.00;101949.66;4991301;28;20485;-87
2022/07/27 11:11:47;;;;;;;3.22;1.20;;;;;;;23.41;39.91;101950.53;4990850;28;20053;-87
2022/07/27 11:14:36;;;;;;;6.57;1.33;;;;;;;22.92;40.20;101955.97;4990057;28;20485;-86
2022/07/27 11:17:10;;;;;;;3.53;1.03;;;;;;;22.73;41.76;101958.16;4990368;28;20057;-86
2022/07/27 11:20:03;;;;;;;4.13;1.30;;;;;;;22.43;42.51;101942.25;4991767;28;20348;-86
2022/07/27 11:22:40;;;;;;;8.68;1.20;;;;;;;22.36;42.63;101944.56;4973047;28;20038;-86
2022/07/27 11:25:06;;;;;;;2.85;1.20;;;;;;;22.16;43.85;101965.78;4989783;28;20032;-87
2022/07/27 11:27:50;;;;;;;5.15;1.48;;;;;;;22.07;43.73;101959.47;4992252;28;20041;-86
2022/07/27 11:30:27;;;;;;;8.50;1.30;;;;;;;21.91;42.89;101956.28;4994558;28;20030;-88
2022/07/27 11:32:54;;;;;;;4.75;1.10;;;;;;;22.08;43.68;101955.63;4978777;28;20039;-88
2022/07/27 11:35:19;;;;;;;5.35;1.25;;;;;;;22.54;42.72;101957.22;4988380;28;20050;-89
2022/07/27 11:38:06;;;;;;;4.57;1.20;;;;;;;23.00;42.47;101943.47;5001319;28;20042;-90
2022/07/27 11:40:51;;;;;;;4.53;1.17;;;;;;;23.53;41.35;101954.59;5284065;23;20106;-88
2022/07/27 11:44:06;;;;;;;7.55;1.33;;;;;;;23.39;39.91;101952.78;4999088;28;20481;-88
2022/07/27 11:54:04;;;;;;;5.28;1.10;;;;;;;23.92;38.17;101947.34;5336074;22;20108;-87
2022/07/27 12:02:46;;;;;;;3.92;1.00;;;;;;;24.16;36.42;101955.13;5025431;22;20053;-86
2022/07/27 12:11:58;;;;;;;3.55;1.10;;;;;;;24.89;33.42;101950.75;5426506;22;20061;-87
2022/07/27 12:14:33;;;;;;;2.60;1.10;;;;;;;24.52;34.24;101944.88;5014163;28;20060;-88
2022/07/27 12:17:09;;;;;;;2.63;1.05;;;;;;;24.31;34.78;101950.25;4997321;28;20088;-89
2022/07/27 12:19:35;;;;;;;3.10;1.20;;;;;;;24.46;33.08;101935.25;5032679;28;20036;-96
2022/07/27 12:22:05;;;;;;;3.70;1.23;;;;;;;24.55;33.85;101941.50;5048037;28;20052;-96
2022/07/27 12:24:39;;;;;;;2.20;1.00;;;;;;;24.75;32.95;101942.75;5039972;28;20071;-89
2022/07/27 12:27:13;;;;;;;4.10;1.13;;;;;;;24.55;34.38;101937.97;5039362;28;20021;-86
2022/07/27 12:30:03;;;;;;;4.50;1.40;;;;;;;24.41;34.56;101935.41;5036503;28;20527;-87
2022/07/27 12:32:31;;;;;;;5.03;1.40;;;;;;;24.42;34.68;101940.56;5025444;28;20033;-92
2022/07/27 12:34:57;;;;;;;3.03;0.93;;;;;;;24.81;32.91;101946.13;5015507;28;20049;-92
2022/07/27 12:37:28;;;;;;;3.33;1.37;;;;;;;25.35;30.04;101950.22;5014952;28;20324;-88
2022/07/27 12:39:53;;;;;;;2.92;1.08;;;;;;;25.51;29.73;101948.50;5014040;28;20025;-89
2022/07/27 12:42:18;;;;;;;2.00;1.00;;;;;;;25.48;30.46;101951.09;5032174;28;20523;-89
2022/07/27 12:44:45;;;;;;;6.57;0.98;;;;;;;25.97;30.04;101942.31;5014438;28;20029;-92
2022/07/27 12:50:12;;;;;;;3.57;1.10;;;;;;;26.58;29.84;101943.69;5026406;28;20358;-91
2022/07/27 12:52:46;;;;;;;2.65;1.20;;;;;;;26.26;29.35;101921.41;5024292;28;20029;-92
2022/07/27 12:56:06;;;;;;;8.13;1.20;;;;;;;25.77;31.56;101927.50;5042884;22;20113;-90
2022/07/27 13:22:41;;;;;;;3.63;1.20;;;;;;;26.55;29.05;101892.97;5506157;22;20427;-91
2022/07/27 13:25:51;;;;;;;1.52;1.15;;;;;;;25.78;30.69;101901.66;4994184;28;20113;-92
2022/07/27 13:28:17;;;;;;;4.05;1.30;;;;;;;24.89;30.44;101890.44;4963817;28;20043;-92
2022/07/27 13:34:51;;;;;;;3.90;1.10;;;;;;;23.83;33.19;101895.34;4970538;28;20049;-91
2022/07/27 13:41:02;;;;;;;3.70;1.05;;;;;;;23.92;33.93;101887.13;5274087;22;20057;-86
2022/07/27 13:43:46;;;;;;;3.33;1.20;;;;;;;24.46;33.16;101873.03;5006047;28;20111;-89
2022/07/27 13:46:11;;;;;;;112.32;6.00;;;;;;;25.19;32.49;101865.78;5011979;28;20029;-83
2022/07/27 13:48:41;;;;;;;17.27;1.70;;;;;;;25.94;30.56;101882.59;5011938;28;20022;-85
2022/07/27 13:51:40;;;;;;;4.97;1.05;;;;;;;26.34;28.86;101870.28;4993189;28;20117;-87
2022/07/27 13:54:06;;;;;;;3.25;1.30;;;;;;;26.78;29.60;101880.72;5007711;28;20025;-83
2022/07/27 13:56:34;;;;;;;6.93;1.13;;;;;;;26.47;30.48;101869.13;5010378;28;20473;-83
2022/07/27 13:59:15;;;;;;;4.75;1.23;;;;;;;26.23;31.16;101869.91;5011639;28;20022;-83
2022/07/27 14:01:40;;;;;;;2.58;1.00;;;;;;;25.53;31.05;101883.13;5011227;28;20529;-82
2022/07/27 14:04:18;;;;;;;7.22;1.35;;;;;;;24.86;32.69;101868.38;5009475;28;20022;-82
2022/07/27 14:06:43;;;;;;;2.37;1.30;;;;;;;24.53;32.13;101872.53;5011807;28;20114;-83
2022/07/27 14:09:09;;;;;;;2.53;1.10;;;;;;;24.42;32.52;101874.03;5010995;28;20120;-83
2022/07/27 14:11:35;;;;;;;3.97;1.00;;;;;;;24.72;33.04;101876.84;5010512;28;20026;-83
2022/07/27 14:14:04;;;;;;;5.25;1.20;;;;;;;24.84;32.00;101865.97;4987662;28;20029;-82
2022/07/27 14:17:32;;;;;;;4.43;1.15;;;;;;;25.39;30.94;101857.88;5000140;28;20557;-82
2022/07/27 14:20:05;;;;;;;3.55;1.20;;;;;;;24.77;32.08;101861.00;4948387;22;20060;-82
2022/07/27 14:22:36;;;;;;;5.57;1.27;;;;;;;24.45;31.43;101855.00;5008730;28;20053;-83
2022/07/27 14:25:08;;;;;;;5.43;1.33;;;;;;;24.54;32.02;101840.47;5008303;28;20296;-82
2022/07/27 14:27:51;;;;;;;2.70;0.80;;;;;;;25.16;31.33;101862.88;5009215;28;20029;-83
2022/07/27 14:30:21;;;;;;;3.92;1.23;;;;;;;25.33;31.01;101860.00;5011153;28;20477;-83
2022/07/27 14:36:04;;;;;;;2.17;1.02;;;;;;;24.99;29.16;101850.09;4958593;28;20469;-83
2022/07/27 14:38:52;;;;;;;4.03;1.13;;;;;;;25.20;31.04;101850.13;5011872;28;20026;-83
2022/07/27 14:41:50;;;;;;;3.78;1.38;;;;;;;24.87;31.86;101828.88;4961760;28;20038;-83
2022/07/27 14:44:32;;;;;;;4.18;1.40;;;;;;;24.91;32.01;101844.31;5007712;28;20038;-82
2022/07/27 14:47:16;;;;;;;5.47;1.70;;;;;;;24.61;32.79;101841.56;4991508;28;20054;-82
2022/07/27 14:53:36;;;;;;;3.30;1.40;;;;;;;25.42;31.74;101828.97;5000168;28;20292;-82
2022/07/27 14:56:13;;;;;;;2.85;1.30;;;;;;;25.54;32.09;101829.88;5004032;28;20161;-82
2022/07/27 14:58:38;;;;;;;4.53;1.40;;;;;;;26.00;31.19;101826.34;4993620;28;20014;-82
2022/07/27 15:01:13;;;;;;;5.53;1.30;;;;;;;26.87;30.27;101823.69;5010750;28;20385;-82
2022/07/27 15:07:27;;;;;;;5.63;1.33;;;;;;;27.28;29.66;101818.22;5011061;28;20088;-81
2022/07/27 15:10:25;;;;;;;;;;;;;;;;;;;;;
2022/07/27 15:22:17;;;;;;;;;;;;;;;;;;;;;
2022/07/27 15:24:51;;;;;;;2.50;1.10;;;;;;;25.08;31.78;101824.22;4961549;28;20042;-85
2022/07/27 15:27:29;;;;;;;3.43;1.30;;;;;;;25.13;32.09;101830.63;4991998;28;20364;-84
2022/07/27 15:29:57;;;;;;;4.30;1.05;;;;;;;24.79;32.73;101827.81;4991099;28;20038;-85
2022/07/27 15:32:29;;;;;;;1.83;0.90;;;;;;;24.88;32.23;101841.47;4989846;28;20057;-85
2022/07/27 15:35:09;;;;;;;9.57;1.30;;;;;;;24.67;31.64;101833.13;4991425;28;20033;-86
2022/07/27 15:38:10;;;;;;;2.90;1.10;;;;;;;24.55;32.96;101836.59;4967528;28;20153;-87
2022/07/27 15:47:52;;;;;;;22.52;14.15;;;;;;;23.50;35.96;101808.31;4872418;29;20067;-84
2022/07/27 15:50:21;;;;;;;4.13;1.40;;;;;;;23.06;36.62;101830.13;4910572;29;20535;-84
2022/07/27 15:52:47;;;;;;;3.70;0.88;;;;;;;23.03;36.70;101828.03;4918391;28;20451;-85
2022/07/27 15:55:15;;;;;;;7.22;1.35;;;;;;;22.91;36.65;101822.41;4978974;28;20383;-85
2022/07/27 15:57:41;;;;;;;2.40;1.10;;;;;;;22.87;36.87;101816.78;4990119;28;20634;-85
2022/07/27 16:00:09;;;;;;;3.97;0.93;;;;;;;22.92;38.33;101818.53;4973320;28;20031;-84
2022/07/27 16:02:34;;;;;;;3.28;1.30;;;;;;;22.93;37.83;101817.44;4989186;28;20038;-84
2022/07/27 16:05:00;;;;;;;3.20;1.17;;;;;;;22.93;38.08;101812.75;4973287;28;20129;-85
2022/07/27 16:07:25;;;;;;;3.33;1.10;;;;;;;22.83;38.16;101821.25;4990958;28;20401;-85
2022/07/27 16:09:50;;;;;;;2.73;1.63;;;;;;;22.72;37.95;101815.28;4987624;28;20025;-86
2022/07/27 16:12:18;;;;;;;3.47;1.27;;;;;;;22.58;38.52;101814.59;4982503;28;20030;-84
2022/07/27 16:14:43;;;;;;;2.72;1.40;;;;;;;22.69;38.98;101807.72;4981853;28;20713;-84
2022/07/27 16:17:12;;;;;;;5.57;1.35;;;;;;;22.67;38.45;101808.03;4983701;28;20033;-85
2022/07/27 16:19:37;;;;;;;4.88;1.30;;;;;;;22.63;39.01;101798.06;4985459;28;20053;-85
2022/07/27 16:22:03;;;;;;;3.33;1.30;;;;;;;22.21;38.21;101790.97;4970321;28;20031;-83
2022/07/27 16:24:28;;;;;;;4.40;1.00;;;;;;;22.02;38.87;101793.91;4985797;28;20027;-84
2022/07/27 16:26:54;;;;;;;3.92;1.10;;;;;;;22.10;39.70;101795.06;4987761;28;20890;-84
2022/07/27 16:29:19;;;;;;;6.33;1.23;;;;;;;22.05;39.13;101792.50;4988675;28;20105;-85